Wetterdaten: Woche 22.07.13 - 28.07.13 (KW30)
Datum Zeit Temp. A. Feuchte A. Luftdruck Regen Wind Richtung Taupunkt Windchill Windben
22.07.2013 00:00 17,0 C 71 % 1019,3 hPa 0,0 l/m 0,1 km/h N 11,6 C 17,0 C 2,0 km/h
22.07.2013 01:00 16,3 C 73 % 1019,3 hPa 0,0 l/m 0,1 km/h N 11,5 C 16,3 C 2,0 km/h
22.07.2013 02:00 15,8 C 75 % 1019,0 hPa 0,0 l/m 0,1 km/h N 11,3 C 15,8 C 3,2 km/h
22.07.2013 03:00 15,2 C 76 % 1018,9 hPa 0,0 l/m 0,2 km/h N 11,0 C 15,2 C 3,2 km/h
22.07.2013 04:00 14,6 C 78 % 1018,7 hPa 0,0 l/m 0,1 km/h N 10,8 C 14,6 C 3,2 km/h
22.07.2013 05:00 14,3 C 79 % 1018,7 hPa 0,0 l/m 0,2 km/h N 10,6 C 14,3 C 3,6 km/h
22.07.2013 06:00 14,4 C 80 % 1018,6 hPa 0,0 l/m 0,1 km/h N 10,9 C 14,4 C 2,4 km/h
22.07.2013 07:00 15,8 C 78 % 1018,5 hPa 0,0 l/m 0,0 km/h N 12,0 C 15,8 C 0,8 km/h
22.07.2013 08:00 20,5 C 64 % 1018,3 hPa 0,0 l/m 0,4 km/h N 13,5 C 20,5 C 4,8 km/h
22.07.2013 09:00 23,7 C 54 % 1018,0 hPa 0,0 l/m 0,9 km/h N 13,8 C 23,7 C 6,0 km/h
22.07.2013 10:00 25,6 C 49 % 1017,9 hPa 0,0 l/m 1,6 km/h N 14,0 C 25,6 C 8,9 km/h
22.07.2013 11:00 26,7 C 47 % 1017,9 hPa 0,0 l/m 1,9 km/h N 14,4 C 26,7 C 8,4 km/h
22.07.2013 12:00 27,2 C 43 % 1017,4 hPa 0,0 l/m 3,3 km/h N 13,4 C 27,2 C 12,1 km/h
22.07.2013 13:00 28,5 C 40 % 1016,7 hPa 0,0 l/m 2,5 km/h N 13,6 C 28,5 C 8,9 km/h
22.07.2013 14:00 29,1 C 38 % 1016,0 hPa 0,0 l/m 2,4 km/h N 13,3 C 29,1 C 11,3 km/h
22.07.2013 15:00 29,4 C 35 % 1015,4 hPa 0,0 l/m 3,1 km/h N 12,3 C 29,4 C 10,0 km/h
22.07.2013 16:00 28,9 C 35 % 1014,9 hPa 0,0 l/m 3,8 km/h N 12,0 C 28,9 C 16,1 km/h
22.07.2013 17:00 29,2 C 33 % 1014,4 hPa 0,0 l/m 4,0 km/h N 11,0 C 29,2 C 13,3 km/h
22.07.2013 18:00 30,0 C 31 % 1014,1 hPa 0,0 l/m 2,1 km/h N 11,1 C 30,0 C 9,7 km/h
22.07.2013 19:00 29,8 C 35 % 1013,7 hPa 0,0 l/m 1,2 km/h N 12,6 C 29,8 C 8,0 km/h
22.07.2013 20:00 27,7 C 42 % 1013,5 hPa 0,0 l/m 0,0 km/h N 13,4 C 27,7 C 1,6 km/h
22.07.2013 21:00 23,3 C 51 % 1013,8 hPa 0,0 l/m 0,0 km/h N 12,7 C 23,3 C 0,0 km/h
22.07.2013 22:00 20,8 C 58 % 1013,8 hPa 0,0 l/m 0,1 km/h N 12,2 C 20,8 C 2,0 km/h
22.07.2013 23:00 19,6 C 62 % 1013,7 hPa 0,0 l/m 0,3 km/h N 12,0 C 19,6 C 3,6 km/h
23.07.2013 00:00 18,8 C 66 % 1013,6 hPa 0,0 l/m 0,4 km/h N 12,2 C 18,8 C 4,4 km/h
23.07.2013 01:00 17,4 C 69 % 1013,4 hPa 0,0 l/m 0,1 km/h N 11,5 C 17,4 C 0,8 km/h
23.07.2013 02:00 16,5 C 70 % 1013,3 hPa 0,0 l/m 0,0 km/h N 11,1 C 16,5 C 1,2 km/h
23.07.2013 03:00 16,6 C 68 % 1013,1 hPa 0,0 l/m 0,0 km/h N 10,6 C 16,6 C 0,8 km/h
23.07.2013 04:00 16,7 C 68 % 1012,9 hPa 0,0 l/m 0,4 km/h N 10,7 C 16,7 C 5,2 km/h
23.07.2013 05:00 16,4 C 70 % 1012,9 hPa 0,0 l/m 0,1 km/h N 10,8 C 16,4 C 1,6 km/h
23.07.2013 06:00 15,5 C 77 % 1013,0 hPa 0,0 l/m 0,0 km/h N 11,4 C 15,5 C 0,4 km/h
23.07.2013 07:00 17,0 C 75 % 1013,1 hPa 0,0 l/m 0,0 km/h N 12,4 C 17,0 C 0,4 km/h
23.07.2013 08:00 22,8 C 59 % 1012,9 hPa 0,0 l/m 0,1 km/h N 14,4 C 22,8 C 1,6 km/h
23.07.2013 09:00 26,6 C 48 % 1013,1 hPa 0,0 l/m 3,1 km/h N 14,8 C 26,6 C 10,1 km/h
23.07.2013 10:00 27,7 C 46 % 1013,1 hPa 0,0 l/m 3,5 km/h N 14,8 C 27,7 C 10,1 km/h
23.07.2013 11:00 28,5 C 40 % 1013,1 hPa 0,0 l/m 4,1 km/h N 13,6 C 28,5 C 14,5 km/h
23.07.2013 12:00 29,6 C 38 % 1013,0 hPa 0,0 l/m 4,3 km/h N 13,6 C 29,6 C 14,5 km/h
23.07.2013 13:00 30,0 C 39 % 1012,6 hPa 0,0 l/m 5,6 km/h N 14,3 C 30,0 C 17,3 km/h
23.07.2013 14:00 30,3 C 37 % 1012,4 hPa 0,0 l/m 7,3 km/h N 13,9 C 30,2 C 21,7 km/h
23.07.2013 15:00 30,6 C 36 % 1012,0 hPa 0,0 l/m 6,2 km/h N 13,9 C 30,6 C 23,3 km/h
23.07.2013 16:00 30,5 C 36 % 1011,6 hPa 0,0 l/m 5,2 km/h N 13,9 C 30,5 C 17,3 km/h
23.07.2013 17:00 30,8 C 36 % 1011,2 hPa 0,0 l/m 4,7 km/h N 13,9 C 30,8 C 14,5 km/h
23.07.2013 18:00 31,2 C 37 % 1010,8 hPa 0,0 l/m 3,0 km/h N 14,6 C 31,2 C 12,9 km/h
23.07.2013 19:00 30,9 C 39 % 1010,6 hPa 0,0 l/m 0,6 km/h N 15,3 C 30,9 C 4,4 km/h
23.07.2013 20:00 28,8 C 45 % 1010,4 hPa 0,0 l/m 0,0 km/h N 15,4 C 28,8 C 0,4 km/h
23.07.2013 21:00 24,8 C 55 % 1010,9 hPa 0,0 l/m 0,0 km/h N 15,0 C 24,8 C 1,6 km/h
23.07.2013 22:00 23,0 C 61 % 1011,6 hPa 0,0 l/m 0,3 km/h N 15,1 C 23,0 C 2,8 km/h
23.07.2013 23:00 21,7 C 63 % 1012,0 hPa 0,0 l/m 0,1 km/h N 14,4 C 21,7 C 2,4 km/h
24.07.2013 00:00 20,1 C 68 % 1012,3 hPa 0,0 l/m 0,0 km/h N 14,0 C 20,1 C 0,0 km/h
24.07.2013 01:00 18,9 C 72 % 1012,4 hPa 0,0 l/m 0,0 km/h N 13,8 C 18,9 C 1,2 km/h
24.07.2013 02:00 18,9 C 72 % 1012,7 hPa 0,0 l/m 0,1 km/h N 13,7 C 18,9 C 1,2 km/h
24.07.2013 03:00 17,8 C 75 % 1012,8 hPa 0,0 l/m 0,0 km/h N 13,4 C 17,8 C 0,0 km/h
24.07.2013 04:00 16,8 C 78 % 1013,1 hPa 0,0 l/m 0,0 km/h N 12,9 C 16,8 C 0,0 km/h
24.07.2013 05:00 16,3 C 80 % 1013,3 hPa 0,0 l/m 0,0 km/h N 12,7 C 16,3 C 1,2 km/h
24.07.2013 06:00 16,2 C 81 % 1013,7 hPa 0,0 l/m 0,0 km/h N 12,8 C 16,2 C 0,0 km/h
24.07.2013 07:00 17,4 C 80 % 1014,0 hPa 0,0 l/m 0,0 km/h N 13,8 C 17,4 C 0,0 km/h
24.07.2013 08:00 22,1 C 59 % 1014,3 hPa 0,0 l/m 0,2 km/h N 13,7 C 22,1 C 2,4 km/h
24.07.2013 09:00 25,7 C 51 % 1014,1 hPa 0,0 l/m 0,3 km/h N 14,9 C 25,7 C 4,4 km/h
24.07.2013 10:00 27,9 C 44 % 1013,9 hPa 0,0 l/m 0,6 km/h N 14,6 C 27,9 C 4,8 km/h
24.07.2013 11:00 29,6 C 41 % 1014,0 hPa 0,0 l/m 1,0 km/h N 14,8 C 29,6 C 6,8 km/h
24.07.2013 12:00 30,2 C 40 % 1013,7 hPa 0,0 l/m 1,9 km/h N 14,9 C 30,2 C 8,4 km/h
24.07.2013 13:00 30,5 C 39 % 1013,3 hPa 0,0 l/m 1,8 km/h N 14,8 C 30,5 C 6,8 km/h
24.07.2013 14:00 31,7 C 36 % 1012,6 hPa 0,0 l/m 1,8 km/h N 14,7 C 31,7 C 7,2 km/h
24.07.2013 15:00 31,9 C 37 % 1012,3 hPa 0,0 l/m 2,8 km/h N 15,2 C 31,9 C 9,6 km/h
24.07.2013 16:00 30,4 C 40 % 1012,1 hPa 0,0 l/m 4,4 km/h N 15,3 C 30,4 C 14,9 km/h
24.07.2013 17:00 29,6 C 43 % 1012,0 hPa 0,0 l/m 3,6 km/h N 15,8 C 29,6 C 11,3 km/h
24.07.2013 18:00 28,8 C 49 % 1011,9 hPa 0,0 l/m 1,5 km/h N 16,8 C 28,8 C 7,6 km/h
24.07.2013 19:00 29,5 C 51 % 1011,7 hPa 0,0 l/m 0,1 km/h N 18,1 C 29,5 C 1,6 km/h
24.07.2013 20:00 28,1 C 53 % 1011,9 hPa 0,0 l/m 0,0 km/h N 17,5 C 28,1 C 0,0 km/h
24.07.2013 21:00 25,0 C 61 % 1012,2 hPa 0,0 l/m 0,0 km/h N 17,0 C 25,0 C 0,0 km/h
24.07.2013 22:00 23,1 C 67 % 1012,3 hPa 0,0 l/m 0,0 km/h N 16,5 C 23,1 C 0,4 km/h
24.07.2013 23:00 22,1 C 70 % 1012,5 hPa 0,0 l/m 0,4 km/h N 16,3 C 22,1 C 3,6 km/h
25.07.2013 00:00 22,1 C 70 % 1013,0 hPa 0,0 l/m 0,2 km/h N 16,3 C 22,1 C 3,2 km/h
25.07.2013 01:00 23,3 C 64 % 1013,4 hPa 0,0 l/m 3,5 km/h N 16,0 C 23,3 C 21,7 km/h
25.07.2013 02:00 23,5 C 61 % 1013,4 hPa 0,0 l/m 6,4 km/h N 15,4 C 23,3 C 24,5 km/h
25.07.2013 03:00 23,4 C 61 % 1013,5 hPa 0,0 l/m 5,2 km/h N 15,4 C 23,3 C 21,3 km/h
25.07.2013 04:00 23,2 C 62 % 1014,0 hPa 0,0 l/m 1,7 km/h N 15,5 C 23,2 C 11,7 km/h
25.07.2013 05:00 23,0 C 64 % 1014,3 hPa 0,0 l/m 3,3 km/h N 15,7 C 23,0 C 11,3 km/h
25.07.2013 06:00 22,9 C 65 % 1014,8 hPa 0,0 l/m 4,5 km/h N 15,9 C 22,9 C 12,5 km/h
25.07.2013 07:00 22,4 C 68 % 1015,1 hPa 0,0 l/m 1,6 km/h N 16,1 C 22,4 C 9,3 km/h
25.07.2013 08:00 22,9 C 68 % 1015,3 hPa 0,0 l/m 2,5 km/h N 16,5 C 22,9 C 10,9 km/h
25.07.2013 09:00 23,4 C 67 % 1015,4 hPa 0,0 l/m 6,6 km/h N 16,9 C 23,2 C 20,1 km/h
25.07.2013 10:00 25,1 C 64 % 1015,1 hPa 0,0 l/m 7,7 km/h N 17,9 C 24,7 C 21,3 km/h
25.07.2013 11:00 25,8 C 61 % 1015,2 hPa 0,0 l/m 8,1 km/h N 17,8 C 25,5 C 22,9 km/h
25.07.2013 12:00 27,1 C 59 % 1014,8 hPa 0,0 l/m 6,6 km/h N 18,3 C 27,0 C 20,1 km/h
25.07.2013 13:00 27,9 C 54 % 1014,7 hPa 0,0 l/m 7,8 km/h N 17,5 C 27,7 C 20,1 km/h
25.07.2013 14:00 28,6 C 51 % 1014,4 hPa 0,0 l/m 8,4 km/h N 17,4 C 28,4 C 22,5 km/h
25.07.2013 15:00 29,2 C 50 % 1013,9 hPa 0,0 l/m 7,7 km/h N 17,5 C 29,1 C 20,1 km/h
25.07.2013 16:00 29,4 C 47 % 1013,6 hPa 0,0 l/m 8,0 km/h N 17,0 C 29,2 C 21,3 km/h
25.07.2013 17:00 28,5 C 48 % 1013,8 hPa 0,0 l/m 9,4 km/h N 16,2 C 28,1 C 25,3 km/h
25.07.2013 18:00 28,0 C 50 % 1013,8 hPa 0,0 l/m 6,1 km/h N 16,7 C 28,0 C 18,5 km/h
25.07.2013 19:00 27,9 C 55 % 1013,9 hPa 0,0 l/m 1,9 km/h N 18,1 C 27,9 C 7,2 km/h
25.07.2013 20:00 27,0 C 58 % 1014,0 hPa 0,0 l/m 0,3 km/h N 17,9 C 27,0 C 3,6 km/h
25.07.2013 21:00 24,4 C 64 % 1014,6 hPa 0,0 l/m 0,0 km/h N 17,1 C 24,4 C 0,0 km/h
25.07.2013 22:00 22,6 C 69 % 1014,9 hPa 0,0 l/m 0,0 km/h N 16,7 C 22,6 C 2,4 km/h
25.07.2013 23:00 22,1 C 71 % 1015,0 hPa 0,0 l/m 0,1 km/h N 16,6 C 22,1 C 2,4 km/h
26.07.2013 00:00 20,8 C 75 % 1015,1 hPa 0,0 l/m 0,1 km/h N 16,2 C 20,8 C 2,8 km/h
26.07.2013 01:00 20,2 C 77 % 1015,1 hPa 0,0 l/m 0,0 km/h N 16,1 C 20,2 C 0,4 km/h
26.07.2013 02:00 19,7 C 78 % 1015,1 hPa 0,0 l/m 0,0 km/h N 15,8 C 19,7 C 0,8 km/h
26.07.2013 03:00 19,0 C 80 % 1014,9 hPa 0,0 l/m 0,1 km/h N 15,5 C 19,0 C 2,4 km/h
26.07.2013 04:00 18,7 C 81 % 1015,0 hPa 0,0 l/m 0,1 km/h N 15,3 C 18,7 C 1,6 km/h
26.07.2013 05:00 18,1 C 82 % 1015,3 hPa 0,0 l/m 0,0 km/h N 14,8 C 18,1 C 0,4 km/h
26.07.2013 06:00 18,1 C 82 % 1015,5 hPa 0,0 l/m 0,1 km/h N 15,0 C 18,1 C 2,0 km/h
26.07.2013 07:00 19,6 C 81 % 1015,4 hPa 0,0 l/m 0,1 km/h N 16,3 C 19,6 C 1,6 km/h
26.07.2013 08:00 23,2 C 73 % 1015,4 hPa 0,0 l/m 0,2 km/h N 18,0 C 23,2 C 2,4 km/h
26.07.2013 09:00 26,6 C 62 % 1015,4 hPa 0,0 l/m 0,4 km/h N 18,6 C 26,6 C 3,6 km/h
26.07.2013 10:00 29,5 C 53 % 1015,2 hPa 0,0 l/m 0,4 km/h N 18,9 C 29,5 C 3,6 km/h
26.07.2013 11:00 30,8 C 49 % 1014,8 hPa 0,0 l/m 2,1 km/h N 19,0 C 30,8 C 8,0 km/h
26.07.2013 12:00 30,8 C 51 % 1014,5 hPa 0,0 l/m 3,4 km/h N 19,3 C 30,8 C 11,3 km/h
26.07.2013 13:00 31,5 C 49 % 1014,0 hPa 0,0 l/m 2,9 km/h N 19,3 C 31,5 C 13,7 km/h
26.07.2013 14:00 31,3 C 48 % 1013,6 hPa 0,0 l/m 1,8 km/h N 19,0 C 31,3 C 8,4 km/h
26.07.2013 15:00 31,7 C 47 % 1013,2 hPa 0,0 l/m 1,8 km/h N 19,0 C 31,7 C 9,3 km/h
26.07.2013 16:00 31,6 C 47 % 1012,9 hPa 0,0 l/m 0,8 km/h N 18,7 C 31,6 C 6,4 km/h
26.07.2013 17:00 31,6 C 46 % 1012,5 hPa 0,0 l/m 1,1 km/h N 18,5 C 31,6 C 6,8 km/h
26.07.2013 18:00 32,1 C 44 % 1012,2 hPa 0,0 l/m 1,0 km/h N 18,3 C 32,1 C 7,6 km/h
26.07.2013 19:00 31,1 C 48 % 1012,1 hPa 0,0 l/m 0,3 km/h N 18,7 C 31,1 C 4,4 km/h
26.07.2013 20:00 29,9 C 52 % 1012,1 hPa 0,0 l/m 0,3 km/h N 18,8 C 29,9 C 2,8 km/h
26.07.2013 21:00 26,6 C 61 % 1012,4 hPa 0,0 l/m 0,0 km/h N 18,5 C 26,6 C 0,4 km/h
26.07.2013 22:00 23,9 C 70 % 1012,6 hPa 0,0 l/m 0,0 km/h N 18,1 C 23,9 C 0,0 km/h
26.07.2013 23:00 22,3 C 75 % 1012,6 hPa 0,0 l/m 0,0 km/h N 17,5 C 22,3 C 0,0 km/h
27.07.2013 00:00 21,2 C 78 % 1012,6 hPa 0,0 l/m 0,0 km/h N 17,2 C 21,2 C 0,4 km/h
27.07.2013 01:00 20,3 C 81 % 1012,5 hPa 0,0 l/m 0,0 km/h N 16,9 C 20,3 C 0,0 km/h
27.07.2013 02:00 19,8 C 82 % 1012,3 hPa 0,0 l/m 0,0 km/h N 16,7 C 19,8 C 0,0 km/h
27.07.2013 03:00 19,3 C 82 % 1011,9 hPa 0,0 l/m 0,0 km/h N 16,1 C 19,3 C 0,0 km/h
27.07.2013 04:00 18,8 C 82 % 1011,8 hPa 0,0 l/m 0,0 km/h N 15,7 C 18,8 C 0,0 km/h
27.07.2013 05:00 18,3 C 82 % 1012,0 hPa 0,0 l/m 0,0 km/h N 15,2 C 18,3 C 0,0 km/h
27.07.2013 06:00 18,4 C 81 % 1012,4 hPa 0,0 l/m 0,0 km/h N 15,0 C 18,4 C 0,0 km/h
27.07.2013 07:00 19,8 C 81 % 1012,6 hPa 0,0 l/m 0,1 km/h N 16,3 C 19,8 C 1,6 km/h
27.07.2013 08:00 24,1 C 74 % 1012,7 hPa 0,0 l/m 0,2 km/h N 19,0 C 24,1 C 2,8 km/h
27.07.2013 09:00 27,9 C 60 % 1012,7 hPa 0,0 l/m 0,3 km/h N 19,3 C 27,9 C 4,4 km/h
27.07.2013 10:00 30,4 C 52 % 1012,3 hPa 0,0 l/m 0,8 km/h N 19,4 C 30,4 C 6,0 km/h
27.07.2013 11:00 32,1 C 48 % 1012,0 hPa 0,0 l/m 1,3 km/h N 19,5 C 32,1 C 7,2 km/h
27.07.2013 12:00 33,1 C 47 % 1011,5 hPa 0,0 l/m 2,2 km/h N 20,2 C 33,1 C 8,1 km/h
27.07.2013 13:00 33,9 C 46 % 1011,1 hPa 0,0 l/m 1,8 km/h N 20,5 C 33,9 C 7,2 km/h
27.07.2013 14:00 35,2 C 40 % 1010,8 hPa 0,0 l/m 2,3 km/h N 19,4 C 35,2 C 11,3 km/h
27.07.2013 15:00 34,9 C 39 % 1010,5 hPa 0,0 l/m 2,5 km/h N 18,7 C 34,9 C 10,1 km/h
27.07.2013 16:00 34,0 C 38 % 1010,3 hPa 0,0 l/m 2,0 km/h N 17,8 C 34,0 C 8,8 km/h
27.07.2013 17:00 34,0 C 39 % 1010,0 hPa 0,0 l/m 1,8 km/h N 17,9 C 34,0 C 8,1 km/h
27.07.2013 18:00 35,0 C 39 % 1009,7 hPa 0,0 l/m 0,8 km/h N 18,9 C 35,0 C 6,8 km/h
27.07.2013 19:00 34,1 C 38 % 1009,3 hPa 0,0 l/m 2,1 km/h N 17,8 C 34,1 C 10,9 km/h
27.07.2013 20:00 32,3 C 45 % 1009,1 hPa 0,0 l/m 1,0 km/h N 18,7 C 32,3 C 5,2 km/h
27.07.2013 21:00 29,0 C 55 % 1009,5 hPa 0,0 l/m 0,0 km/h N 19,1 C 29,0 C 0,0 km/h
27.07.2013 22:00 25,8 C 67 % 1009,8 hPa 0,0 l/m 0,0 km/h N 19,1 C 25,8 C 0,0 km/h
27.07.2013 23:00 24,4 C 74 % 1009,8 hPa 0,0 l/m 0,0 km/h N 19,3 C 24,4 C 0,0 km/h
28.07.2013 00:00 24,8 C 73 % 1009,9 hPa 0,0 l/m 0,3 km/h N 19,7 C 24,8 C 1,6 km/h
28.07.2013 01:00 25,4 C 70 % 1009,7 hPa 0,0 l/m 2,0 km/h N 19,5 C 25,4 C 8,0 km/h
28.07.2013 02:00 24,6 C 71 % 1009,7 hPa 0,0 l/m 0,3 km/h N 19,0 C 24,6 C 3,2 km/h
28.07.2013 03:00 22,8 C 75 % 1009,8 hPa 0,0 l/m 0,0 km/h N 18,1 C 22,8 C 0,4 km/h
28.07.2013 04:00 21,1 C 80 % 1009,7 hPa 0,0 l/m 0,0 km/h N 17,6 C 21,1 C 0,0 km/h
28.07.2013 05:00 20,1 C 82 % 1010,1 hPa 0,0 l/m 0,0 km/h N 17,0 C 20,1 C 0,0 km/h
28.07.2013 06:00 19,8 C 81 % 1010,3 hPa 0,0 l/m 0,0 km/h N 16,4 C 19,8 C 0,0 km/h
28.07.2013 07:00 20,9 C 80 % 1010,5 hPa 0,0 l/m 0,1 km/h N 17,2 C 20,9 C 1,6 km/h
28.07.2013 08:00 25,4 C 73 % 1010,6 hPa 0,0 l/m 1,0 km/h N 20,0 C 25,4 C 6,8 km/h
28.07.2013 09:00 29,4 C 59 % 1010,7 hPa 0,0 l/m 0,8 km/h N 20,6 C 29,4 C 6,0 km/h
28.07.2013 10:00 31,6 C 54 % 1010,7 hPa 0,0 l/m 1,9 km/h N 21,0 C 31,6 C 8,9 km/h
28.07.2013 11:00 33,6 C 50 % 1010,8 hPa 0,0 l/m 1,6 km/h N 21,7 C 33,6 C 7,6 km/h
28.07.2013 12:00 35,3 C 47 % 1010,6 hPa 0,0 l/m 1,7 km/h N 22,3 C 35,3 C 8,8 km/h
28.07.2013 13:00 36,3 C 45 % 1010,6 hPa 0,0 l/m 2,2 km/h N 22,5 C 36,3 C 11,7 km/h
28.07.2013 14:00 37,3 C 40 % 1010,4 hPa 0,0 l/m 2,8 km/h N 21,1 C 37,3 C 11,3 km/h
28.07.2013 15:00 37,3 C 39 % 1010,1 hPa 0,0 l/m 3,1 km/h N 20,8 C 37,3 C 17,7 km/h
28.07.2013 16:00 36,6 C 39 % 1009,7 hPa 0,0 l/m 4,3 km/h N 20,1 C 36,6 C 18,1 km/h
28.07.2013 17:00 36,4 C 39 % 1009,4 hPa 0,0 l/m 5,9 km/h N 20,2 C 36,4 C 19,7 km/h
28.07.2013 18:00 36,0 C 40 % 1009,2 hPa 0,0 l/m 8,2 km/h N 20,1 C 36,0 C 21,7 km/h
28.07.2013 19:00 34,7 C 43 % 1009,1 hPa 0,0 l/m 6,7 km/h N 20,2 C 34,7 C 20,1 km/h
28.07.2013 20:00 33,1 C 48 % 1009,1 hPa 0,0 l/m 5,4 km/h N 20,6 C 33,1 C 18,5 km/h
28.07.2013 21:00 31,2 C 57 % 1009,3 hPa 0,0 l/m 3,8 km/h N 21,6 C 31,2 C 14,1 km/h
28.07.2013 22:00 30,0 C 62 % 1009,3 hPa 0,0 l/m 3,1 km/h N 21,8 C 30,0 C 13,7 km/h
28.07.2013 23:00 29,6 C 60 % 1009,3 hPa 0,0 l/m 3,4 km/h N 21,1 C 29,6 C 14,1 km/h
Min-Datum _ 22.07.13 22.07.13 27.07.13 - 22.07.13 - 22.07.13 22.07.13 22.07.13
_ Min-Zeit 06:15 18:15 20:15 - 00:00 - 17:15 05:30 00:30
Minimum _ 14,1 C 30 % 1009,0 hPa - 0,0 km/h - 10,2 C 14,2 C 0,0 km/h
Max-Datum _ 28.07.13 24.07.13 22.07.13 22.07.13 25.07.13 - 28.07.13 28.07.13 23.07.13
_ Max-Zeit 14:45 06:45 00:00 00:00 17:30 - 13:30 14:45 14:15
Maximum _ 37,8 C 82 % 1019,3 hPa 0,0 l/m 12,5 km/h
N
- 23,0 C 37,7 C 27,4 km/h
N
Durchschnitt _ 25,6 C 58 % 1013,1 hPa #0,0 l/m 1,8 km/h N 16,2 C 25,6 C 7,2 km/h